This is the latest recevied weather packets stored in our database for station/object SP8AQK-13. If no packets are shown the sender has not sent any weather packets the latest 10 day(s).
| Time | Temp. | Humidity | Pressure | Rain* | Wind** | Luminosity | Snow |
|---|---|---|---|---|---|---|---|
| 1777880606 | 22.78° C | 35% | 1017.8 hPa | - | - | - | - |
| 1777879406 | 22.22° C | 37% | 1017.9 hPa | - | - | - | - |
| 1777878205 | 21.67° C | 37% | 1018 hPa | - | - | - | - |
| 1777877004 | 21.11° C | 36% | 1018.1 hPa | - | - | - | - |
| 1777875803 | 19.44° C | 39% | 1018.2 hPa | - | - | - | - |
| 1777874602 | 18.33° C | 43% | 1018.2 hPa | - | - | - | - |
| 1777873402 | 16.11° C | 51% | 1018.3 hPa | - | - | - | - |
| 1777872201 | 13.33° C | 68% | 1018.6 hPa | - | - | - | - |
| 1777871000 | 10° C | 82% | 1019.1 hPa | - | - | - | - |
| 1777869800 | 7.78° C | 86% | 1019.3 hPa | - | - | - | - |
| 1777868599 | 6.67° C | 88% | 1019.2 hPa | - | - | - | - |
| 1777867398 | 6.11° C | 91% | 1019.3 hPa | - | - | - | - |
| 1777866197 | 5.56° C | 91% | 1019.2 hPa | - | - | - | - |
| 1777864997 | 5.56° C | 92% | 1019.4 hPa | - | - | - | - |
| 1777863796 | 5.56° C | 89% | 1019.1 hPa | - | - | - | - |
| 1777862595 | 6.11° C | 85% | 1019.1 hPa | - | - | - | - |
| 1777861394 | 7.22° C | 80% | 1018.9 hPa | - | - | - | - |
| 1777860194 | 7.78° C | 76% | 1018.8 hPa | - | - | - | - |
| 1777856591 | 10° C | 64% | 1018.7 hPa | - | - | - | - |
| 1777855391 | 10° C | 64% | 1018.8 hPa | - | - | - | - |
| 1777854190 | 10.56° C | 63% | 1018.7 hPa | - | - | - | - |
| 1777852989 | 11.67° C | 60% | 1018.7 hPa | - | - | - | - |
| 1777850588 | 12.22° C | 57% | 1018.6 hPa | - | - | - | - |
| 1777849387 | 12.22° C | 58% | 1018.6 hPa | - | - | - | - |
| 1777848187 | 12.22° C | 59% | 1018.7 hPa | - | - | - | - |
* Rain since midnight (hover to see other rain measurements)
** Current wind speed in m/s (hover to see current wind gust speed)